Station: ELLX - 19/09/2020 07:50Z (il y a 19 minutes)
ELLX 190750Z 12005KT 070V190 CAVOK 17/08 Q1019 NOSIG
Vent du 120º - 5 kt (vent de direction variable de 070º à 190º)
Visibilité > 10 km et plafond haut ou pas de nuages significatifs
Température: +17ºC - Point de rosée: +08ºC - QNH: 1019 hPa
Pas de changement significatif prévu dans les 2 heures qui suivent l'observation